Time;durP1;ratioP1;P1;durP2;ratioP2;P2;SDS_P1;SDS_P2;PMS_P1;PMS_P2;Temp;Humidity;BMP_temperature;BMP_pressure;BME280_temperature;BME280_humidity;BME280_pressure;Samples;Min_cycle;Max_cycle;Signal;HPM_P1;HPM_P2
2023/09/25 13:51:22;;;;;;;2.33;1.00;;;;;;;;;;6264985;22;1247299;-87
2023/09/25 13:53:48;;;;;;;1.67;0.93;;;;;;;;;;6243082;22;20456;-90
2023/09/25 13:56:15;;;;;;;1.75;1.00;;;;;;;;;;6243783;22;20030;-88
2023/09/25 13:58:41;;;;;;;1.63;0.90;;;;;;;;;;6242734;22;20051;-86
2023/09/25 14:01:07;;;;;;;1.35;0.98;;;;;;;;;;6244913;22;20031;-86
2023/09/25 14:03:33;;;;;;;1.50;0.77;;;;;;;;;;6243928;22;20015;-84
2023/09/25 14:06:03;;;;;;;2.05;0.85;;;;;;;;;;6245090;22;20012;-85
2023/09/25 14:08:29;;;;;;;2.92;0.98;;;;;;;;;;6245553;22;20144;-84
2023/09/25 14:10:55;;;;;;;2.92;1.15;;;;;;;;;;6245063;22;20070;-84
2023/09/25 14:13:21;;;;;;;1.30;0.80;;;;;;;;;;6271909;22;20019;-85
2023/09/25 14:15:47;;;;;;;2.60;1.00;;;;;;;;;;6245675;22;20417;-85
2023/09/25 14:18:13;;;;;;;1.85;0.95;;;;;;;;;;6271592;22;20015;-85
2023/09/25 14:20:39;;;;;;;1.88;0.85;;;;;;;;;;6245183;22;20150;-85
2023/09/25 14:23:06;;;;;;;1.73;0.90;;;;;;;;;;6244682;22;20077;-84
2023/09/25 14:25:32;;;;;;;2.10;0.82;;;;;;;;;;6272256;22;20035;-84
2023/09/25 14:27:58;;;;;;;3.13;0.82;;;;;;;;;;6271444;22;20027;-85
2023/09/25 14:30:24;;;;;;;1.90;1.00;;;;;;;;;;6244522;22;20019;-85
2023/09/25 14:32:50;;;;;;;1.38;0.75;;;;;;;;;;6271008;22;20027;-84
2023/09/25 14:35:16;;;;;;;2.65;0.90;;;;;;;;;;6243342;22;20007;-84
2023/09/25 14:37:42;;;;;;;2.42;0.80;;;;;;;;;;6271862;22;20016;-84
2023/09/25 14:40:08;;;;;;;2.17;1.00;;;;;;;;;;6245117;22;20046;-86
2023/09/25 14:42:35;;;;;;;1.77;1.00;;;;;;;;;;6244655;22;20408;-85
2023/09/25 14:45:01;;;;;;;1.90;0.82;;;;;;;;;;6270773;22;20016;-84
2023/09/25 14:47:27;;;;;;;2.55;1.10;;;;;;;;;;6219435;22;20011;-80
2023/09/25 14:49:53;;;;;;;1.17;0.85;;;;;;;;;;6244397;22;20012;-81
2023/09/25 14:52:19;;;;;;;1.70;0.90;;;;;;;;;;6271760;22;20019;-81
2023/09/25 14:54:47;;;;;;;1.92;1.05;;;;;;;;;;6272932;22;20143;-81
2023/09/25 14:57:13;;;;;;;1.92;1.10;;;;;;;;;;6271584;22;20028;-81
2023/09/25 14:59:39;;;;;;;1.25;0.93;;;;;;;;;;6245027;22;20030;-81
2023/09/25 15:02:06;;;;;;;1.13;0.70;;;;;;;;;;6272138;22;20039;-81
2023/09/25 15:04:32;;;;;;;2.13;0.80;;;;;;;;;;6272710;22;20012;-81
2023/09/25 15:06:58;;;;;;;2.40;1.00;;;;;;;;;;6271734;22;20083;-81
2023/09/25 15:09:25;;;;;;;1.30;0.88;;;;;;;;;;6272146;22;20387;-81
2023/09/25 15:11:51;;;;;;;1.65;0.95;;;;;;;;;;6244101;22;20368;-81
2023/09/25 15:14:20;;;;;;;1.00;0.80;;;;;;;;;;6270884;22;20018;-82
2023/09/25 15:16:46;;;;;;;2.95;1.15;;;;;;;;;;6270926;22;20016;-81
2023/09/25 15:19:12;;;;;;;2.63;1.10;;;;;;;;;;6271318;22;20333;-81
2023/09/25 15:21:38;;;;;;;2.25;0.77;;;;;;;;;;6245560;22;20416;-81
2023/09/25 15:24:05;;;;;;;1.60;0.85;;;;;;;;;;6271567;22;20425;-82
2023/09/25 15:26:31;;;;;;;2.20;0.93;;;;;;;;;;6271457;22;20019;-82
2023/09/25 15:28:57;;;;;;;1.10;0.80;;;;;;;;;;6270723;22;20022;-81
2023/09/25 15:31:24;;;;;;;2.22;1.17;;;;;;;;;;6242781;22;20020;-81
2023/09/25 15:33:51;;;;;;;1.23;0.95;;;;;;;;;;6244071;22;20047;-80
2023/09/25 15:36:17;;;;;;;1.95;1.15;;;;;;;;;;6243493;22;20457;-81
2023/09/25 15:38:43;;;;;;;0.95;0.60;;;;;;;;;;6242564;22;20031;-81
2023/09/25 15:41:09;;;;;;;2.08;0.90;;;;;;;;;;6267425;22;20326;-81
2023/09/25 15:43:35;;;;;;;1.42;0.80;;;;;;;;;;6240994;22;20089;-81
2023/09/25 15:46:11;;;;;;;1.30;1.00;;;;;;;;;;6267139;22;20020;-81
2023/09/25 15:48:37;;;;;;;0.98;0.80;;;;;;;;;;6269859;22;20066;-81
2023/09/25 15:51:03;;;;;;;1.80;0.93;;;;;;;;;;6270739;22;20106;-81
2023/09/25 15:53:29;;;;;;;1.80;0.80;;;;;;;;;;6241557;22;20459;-81
2023/09/25 15:55:57;;;;;;;1.25;0.98;;;;;;;;;;6241246;22;20057;-80
2023/09/25 15:58:23;;;;;;;2.00;1.17;;;;;;;;;;6243621;22;20043;-81
2023/09/25 16:00:50;;;;;;;1.45;0.73;;;;;;;;;;6268581;22;20016;-80
2023/09/25 16:03:16;;;;;;;1.05;0.95;;;;;;;;;;6269698;22;20008;-80
2023/09/25 16:05:42;;;;;;;1.42;0.93;;;;;;;;;;6271985;22;20012;-80
2023/09/25 16:08:08;;;;;;;2.47;0.90;;;;;;;;;;6271465;22;20011;-81
2023/09/25 16:10:35;;;;;;;0.93;0.80;;;;;;;;;;6271867;22;20023;-80
2023/09/25 16:13:01;;;;;;;3.15;1.10;;;;;;;;;;6270502;22;20012;-80
2023/09/25 16:15:27;;;;;;;2.30;1.00;;;;;;;;;;6244099;22;20066;-80
2023/09/25 16:17:53;;;;;;;2.45;1.10;;;;;;;;;;6270497;22;20437;-80
2023/09/25 16:20:19;;;;;;;1.17;1.08;;;;;;;;;;6243688;22;20023;-80
2023/09/25 16:22:45;;;;;;;1.98;0.70;;;;;;;;;;6269868;22;20016;-81
2023/09/25 16:25:11;;;;;;;1.38;0.82;;;;;;;;;;6270046;22;20018;-81
2023/09/25 16:27:37;;;;;;;1.98;0.98;;;;;;;;;;6270842;22;20016;-80
2023/09/25 16:30:04;;;;;;;1.42;0.80;;;;;;;;;;6271065;22;20026;-79
2023/09/25 16:32:30;;;;;;;1.20;0.80;;;;;;;;;;6270983;22;20015;-82
2023/09/25 16:34:56;;;;;;;1.10;0.88;;;;;;;;;;6244193;22;20012;-82
2023/09/25 16:37:22;;;;;;;2.75;1.05;;;;;;;;;;6269773;22;20015;-83
2023/09/25 16:39:48;;;;;;;2.40;1.20;;;;;;;;;;6241016;22;20016;-82
2023/09/25 16:42:14;;;;;;;2.78;0.85;;;;;;;;;;6243388;22;20161;-82
2023/09/25 16:44:40;;;;;;;1.67;0.88;;;;;;;;;;6243951;22;20044;-82
2023/09/25 16:47:06;;;;;;;0.80;0.73;;;;;;;;;;6270206;22;20012;-82
2023/09/25 16:49:32;;;;;;;2.40;0.93;;;;;;;;;;6243522;22;20020;-82
2023/09/25 16:51:58;;;;;;;2.40;0.90;;;;;;;;;;6270549;22;20022;-82
2023/09/25 16:54:24;;;;;;;1.15;0.80;;;;;;;;;;6269875;22;20311;-82
2023/09/25 16:56:50;;;;;;;4.53;1.05;;;;;;;;;;6270410;22;20023;-82
2023/09/25 16:59:16;;;;;;;4.63;0.80;;;;;;;;;;6270774;22;20019;-81
2023/09/25 17:01:42;;;;;;;1.77;0.70;;;;;;;;;;6272052;22;20035;-81
2023/09/25 17:04:09;;;;;;;1.40;0.82;;;;;;;;;;6271573;22;20408;-81
2023/09/25 17:06:35;;;;;;;3.10;1.00;;;;;;;;;;6271185;22;20016;-81
2023/09/25 17:09:01;;;;;;;0.93;0.80;;;;;;;;;;6270273;22;20020;-81
2023/09/25 17:11:32;;;;;;;1.98;0.63;;;;;;;;;;6271720;22;20077;-80
2023/09/25 17:13:58;;;;;;;1.83;1.10;;;;;;;;;;6267108;22;20311;-81
2023/09/25 17:16:24;;;;;;;1.08;0.88;;;;;;;;;;6267385;22;20094;-81
2023/09/25 17:18:50;;;;;;;2.17;1.00;;;;;;;;;;6272854;22;20047;-81
2023/09/25 17:21:17;;;;;;;2.03;0.75;;;;;;;;;;6272667;22;20049;-81
2023/09/25 17:23:43;;;;;;;2.50;0.90;;;;;;;;;;6244924;22;20016;-80
2023/09/25 17:26:09;;;;;;;1.42;0.98;;;;;;;;;;6243420;22;20450;-81
2023/09/25 17:28:35;;;;;;;1.58;0.70;;;;;;;;;;6272638;22;20315;-81
2023/09/25 17:31:07;;;;;;;1.70;0.93;;;;;;;;;;6272992;22;20011;-81
2023/09/25 17:33:33;;;;;;;1.05;0.90;;;;;;;;;;6244712;22;20020;-82
2023/09/25 17:35:59;;;;;;;1.60;1.00;;;;;;;;;;6272988;22;20027;-82
2023/09/25 17:38:26;;;;;;;1.02;0.95;;;;;;;;;;6245181;22;20087;-82
2023/09/25 17:40:52;;;;;;;1.40;1.10;;;;;;;;;;6271605;22;20072;-82
2023/09/25 17:43:18;;;;;;;1.40;0.90;;;;;;;;;;6272783;22;20082;-82
2023/09/25 17:45:44;;;;;;;1.23;0.75;;;;;;;;;;6246260;22;20027;-82
2023/09/25 17:48:11;;;;;;;1.08;0.85;;;;;;;;;;6245051;22;20018;-82
2023/09/25 17:50:37;;;;;;;3.17;1.17;;;;;;;;;;6273154;22;20019;-86
2023/09/25 17:53:03;;;;;;;2.65;0.90;;;;;;;;;;6245259;22;20011;-83
2023/09/25 17:55:29;;;;;;;1.48;0.80;;;;;;;;;;6271225;22;20046;-86
2023/09/25 17:57:55;;;;;;;1.23;0.73;;;;;;;;;;6244296;22;20008;-89
2023/09/25 18:00:23;;;;;;;0.93;0.75;;;;;;;;;;6246109;22;20113;-90
2023/09/25 18:02:50;;;;;;;1.88;1.13;;;;;;;;;;6273402;22;20392;-93
2023/09/25 18:05:16;;;;;;;1.50;1.00;;;;;;;;;;6246701;22;20019;-93
2023/09/25 18:07:42;;;;;;;1.67;1.08;;;;;;;;;;6247652;22;20019;-92
2023/09/25 18:10:08;;;;;;;1.40;0.90;;;;;;;;;;6272750;22;20012;-93
2023/09/25 18:12:35;;;;;;;1.58;1.10;;;;;;;;;;6274465;22;20083;-93
2023/09/25 18:15:05;;;;;;;2.00;1.20;;;;;;;;;;6274530;22;20012;-92
2023/09/25 18:17:31;;;;;;;3.33;1.33;;;;;;;;;;6245593;22;20023;-93
2023/09/25 18:19:57;;;;;;;2.58;1.10;;;;;;;;;;6271662;22;20038;-93
2023/09/25 18:22:23;;;;;;;1.17;1.08;;;;;;;;;;6271248;22;20027;-92
2023/09/25 18:24:50;;;;;;;1.73;1.20;;;;;;;;;;6244830;22;20318;-94
2023/09/25 18:27:17;;;;;;;1.70;1.20;;;;;;;;;;6244306;22;20070;-93
2023/09/25 18:29:43;;;;;;;1.67;1.30;;;;;;;;;;6249989;22;20349;-93
2023/09/25 18:32:09;;;;;;;3.10;1.15;;;;;;;;;;6274710;22;20291;-94
2023/09/25 18:34:39;;;;;;;1.60;0.90;;;;;;;;;;6247787;22;20018;-93
2023/09/25 18:37:05;;;;;;;1.70;1.30;;;;;;;;;;6273457;22;20344;-93
2023/09/25 18:39:31;;;;;;;3.55;1.23;;;;;;;;;;6246411;22;20047;-94
2023/09/25 18:41:57;;;;;;;3.75;1.10;;;;;;;;;;6246101;22;20091;-93
2023/09/25 18:44:23;;;;;;;2.38;1.30;;;;;;;;;;6247407;22;20011;-93
2023/09/25 18:46:50;;;;;;;1.85;1.17;;;;;;;;;;6246682;22;20012;-93
2023/09/25 18:49:16;;;;;;;1.38;1.27;;;;;;;;;;6247171;22;20023;-93
2023/09/25 18:51:42;;;;;;;1.65;1.40;;;;;;;;;;6246784;22;20019;-94
2023/09/25 18:54:08;;;;;;;2.42;1.45;;;;;;;;;;6274276;22;20392;-93
2023/09/25 18:56:34;;;;;;;2.65;1.48;;;;;;;;;;6273780;22;20015;-93
2023/09/25 18:59:00;;;;;;;1.60;1.48;;;;;;;;;;6246649;22;20031;-94
2023/09/25 19:01:26;;;;;;;3.50;1.67;;;;;;;;;;6276193;22;20011;-93
2023/09/25 19:03:52;;;;;;;2.13;1.92;;;;;;;;;;6274251;22;20011;-93
2023/09/25 19:06:18;;;;;;;1.65;1.55;;;;;;;;;;6246126;22;20015;-93
2023/09/25 19:08:45;;;;;;;2.83;1.80;;;;;;;;;;6274781;22;20026;-94
2023/09/25 19:11:11;;;;;;;2.85;1.83;;;;;;;;;;6246537;22;20038;-96
2023/09/25 19:13:37;;;;;;;2.38;1.45;;;;;;;;;;6274662;22;20019;-91
2023/09/25 19:16:03;;;;;;;3.05;1.80;;;;;;;;;;6244132;22;20015;-90
2023/09/25 19:18:29;;;;;;;1.83;1.50;;;;;;;;;;6241539;22;20023;-90
2023/09/25 19:20:55;;;;;;;1.80;1.70;;;;;;;;;;6269826;22;20310;-90
2023/09/25 19:23:22;;;;;;;1.55;1.42;;;;;;;;;;6271951;22;20027;-90
2023/09/25 19:25:48;;;;;;;2.72;1.70;;;;;;;;;;6245936;22;20016;-90
2023/09/25 19:28:14;;;;;;;2.28;1.48;;;;;;;;;;6271412;22;20020;-88
2023/09/25 19:30:40;;;;;;;1.98;1.30;;;;;;;;;;6245748;22;20015;-88
2023/09/25 19:33:06;;;;;;;4.60;1.90;;;;;;;;;;6247715;22;20023;-88
2023/09/25 19:35:32;;;;;;;2.10;1.75;;;;;;;;;;6244311;22;20012;-88
2023/09/25 19:37:58;;;;;;;2.83;1.63;;;;;;;;;;6244245;22;20012;-88
2023/09/25 19:40:24;;;;;;;1.33;1.23;;;;;;;;;;6245058;22;20449;-88
2023/09/25 19:42:50;;;;;;;3.17;1.40;;;;;;;;;;6271564;22;20018;-88
2023/09/25 19:45:16;;;;;;;2.05;1.40;;;;;;;;;;6244401;22;20015;-88
2023/09/25 19:47:43;;;;;;;3.00;1.50;;;;;;;;;;6270948;22;20008;-88
2023/09/25 19:50:09;;;;;;;1.92;1.75;;;;;;;;;;6243476;22;20339;-89
2023/09/25 19:52:35;;;;;;;2.47;2.28;;;;;;;;;;6244621;22;20016;-88
2023/09/25 19:55:01;;;;;;;2.53;1.98;;;;;;;;;;6271371;22;20016;-88
2023/09/25 19:57:27;;;;;;;2.83;2.10;;;;;;;;;;6270122;22;20441;-88
2023/09/25 19:59:55;;;;;;;2.00;1.80;;;;;;;;;;6244003;22;20065;-88
2023/09/25 20:02:20;;;;;;;2.78;1.95;;;;;;;;;;6244480;22;20498;-88
2023/09/25 20:04:49;;;;;;;2.05;1.63;;;;;;;;;;6244057;22;20024;-88
2023/09/25 20:07:16;;;;;;;2.90;2.10;;;;;;;;;;6243380;22;20022;-89
2023/09/25 20:09:42;;;;;;;3.00;2.35;;;;;;;;;;6245167;22;20511;-89
2023/09/25 20:12:08;;;;;;;4.15;2.40;;;;;;;;;;6271360;22;20012;-88
2023/09/25 20:14:36;;;;;;;2.80;2.10;;;;;;;;;;6270780;22;20023;-88
2023/09/25 20:17:02;;;;;;;2.55;2.35;;;;;;;;;;6243799;22;20326;-88
2023/09/25 20:19:28;;;;;;;2.80;2.30;;;;;;;;;;6270804;22;20099;-88
2023/09/25 20:21:54;;;;;;;2.97;2.20;;;;;;;;;;6271966;22;20043;-89
2023/09/25 20:24:20;;;;;;;3.28;2.22;;;;;;;;;;6272269;22;20109;-88
2023/09/25 20:26:46;;;;;;;2.60;2.22;;;;;;;;;;6271303;22;20015;-87
2023/09/25 20:29:12;;;;;;;3.20;2.28;;;;;;;;;;6270828;22;20064;-87
2023/09/25 20:31:38;;;;;;;2.70;2.45;;;;;;;;;;6270840;22;20012;-82
2023/09/25 20:34:04;;;;;;;6.22;2.05;;;;;;;;;;6241222;22;20042;-87
2023/09/25 20:36:30;;;;;;;4.75;2.60;;;;;;;;;;6244416;22;20102;-86
2023/09/25 20:38:56;;;;;;;3.40;2.65;;;;;;;;;;6271717;22;20016;-87
2023/09/25 20:41:22;;;;;;;3.67;2.67;;;;;;;;;;6271774;22;20012;-86
2023/09/25 20:43:48;;;;;;;2.72;2.33;;;;;;;;;;6271430;22;20018;-87
2023/09/25 20:46:14;;;;;;;3.45;2.20;;;;;;;;;;6244148;22;20020;-87
2023/09/25 20:48:40;;;;;;;3.13;2.30;;;;;;;;;;6270888;22;20019;-87
2023/09/25 20:51:06;;;;;;;2.58;2.20;;;;;;;;;;6270926;22;20015;-88
2023/09/25 20:53:32;;;;;;;2.92;2.20;;;;;;;;;;6271142;22;20082;-87
2023/09/25 20:55:58;;;;;;;3.15;2.30;;;;;;;;;;6271300;22;20015;-87
2023/09/25 20:58:24;;;;;;;3.33;2.15;;;;;;;;;;6243645;22;20026;-86
2023/09/25 21:00:50;;;;;;;3.42;3.00;;;;;;;;;;6271184;22;20019;-87
2023/09/25 21:03:17;;;;;;;5.35;2.42;;;;;;;;;;6270353;22;20087;-87
2023/09/25 21:05:43;;;;;;;3.00;2.42;;;;;;;;;;6242894;22;20447;-87
2023/09/25 21:08:09;;;;;;;2.97;2.65;;;;;;;;;;6243580;22;20031;-87
2023/09/25 21:10:35;;;;;;;2.13;1.83;;;;;;;;;;6244101;22;20011;-87
2023/09/25 21:13:01;;;;;;;4.38;2.65;;;;;;;;;;6271681;22;20012;-87
2023/09/25 21:15:27;;;;;;;3.08;2.40;;;;;;;;;;6271095;22;20061;-87
2023/09/25 21:17:53;;;;;;;3.67;2.72;;;;;;;;;;6244002;22;20449;-86
2023/09/25 21:20:19;;;;;;;3.47;2.70;;;;;;;;;;6271476;22;20047;-87
2023/09/25 21:22:45;;;;;;;3.95;2.78;;;;;;;;;;6271933;22;20317;-86
2023/09/25 21:25:11;;;;;;;2.95;2.65;;;;;;;;;;6243233;22;20095;-87
2023/09/25 21:27:37;;;;;;;3.03;2.72;;;;;;;;;;6244396;22;20435;-87
2023/09/25 21:30:03;;;;;;;3.50;2.70;;;;;;;;;;6244190;22;20410;-86
2023/09/25 21:32:29;;;;;;;3.78;2.75;;;;;;;;;;6244075;22;20352;-88
2023/09/25 21:34:55;;;;;;;2.80;2.45;;;;;;;;;;6270828;22;20012;-87
2023/09/25 21:37:21;;;;;;;2.95;2.55;;;;;;;;;;6271856;22;20020;-87
2023/09/25 21:39:47;;;;;;;3.80;2.97;;;;;;;;;;6271706;22;20015;-87
2023/09/25 21:42:13;;;;;;;2.97;2.45;;;;;;;;;;6270521;22;20027;-87
2023/09/25 21:44:39;;;;;;;10.25;4.35;;;;;;;;;;6271983;22;20065;-87
2023/09/25 21:47:05;;;;;;;3.20;2.63;;;;;;;;;;6270776;22;20055;-87
2023/09/25 21:49:31;;;;;;;6.22;3.08;;;;;;;;;;6271430;22;20011;-86
2023/09/25 21:51:57;;;;;;;4.38;3.10;;;;;;;;;;6270348;22;20456;-87
2023/09/25 21:54:23;;;;;;;4.20;3.35;;;;;;;;;;6272529;22;20020;-86
2023/09/25 21:56:49;;;;;;;4.47;3.20;;;;;;;;;;6271745;22;20026;-86
2023/09/25 21:59:15;;;;;;;3.67;3.05;;;;;;;;;;6272580;22;20383;-87
2023/09/25 22:01:41;;;;;;;4.88;3.03;;;;;;;;;;6246054;22;20015;-87
2023/09/25 22:04:08;;;;;;;3.40;3.10;;;;;;;;;;6272575;22;20015;-87
2023/09/25 22:06:34;;;;;;;5.82;3.28;;;;;;;;;;6270948;22;20449;-87
2023/09/25 22:09:00;;;;;;;5.95;3.42;;;;;;;;;;6272748;22;20058;-86
2023/09/25 22:11:26;;;;;;;3.67;3.00;;;;;;;;;;6273287;22;20043;-87
2023/09/25 22:13:54;;;;;;;4.75;3.20;;;;;;;;;;6273099;22;20012;-87
2023/09/25 22:16:21;;;;;;;3.53;2.90;;;;;;;;;;6245294;22;20046;-87
2023/09/25 22:18:47;;;;;;;4.72;2.90;;;;;;;;;;6273556;22;20011;-87
2023/09/25 22:21:17;;;;;;;4.85;3.25;;;;;;;;;;6272280;22;20015;-87
2023/09/25 22:23:43;;;;;;;4.05;2.90;;;;;;;;;;6273561;22;20042;-86
2023/09/25 22:26:09;;;;;;;5.00;3.17;;;;;;;;;;6272288;22;20023;-87
2023/09/25 22:28:36;;;;;;;3.60;3.15;;;;;;;;;;6273159;22;20329;-87
2023/09/25 22:31:03;;;;;;;6.57;3.05;;;;;;;;;;6272416;22;20436;-87
2023/09/25 22:33:32;;;;;;;3.63;2.80;;;;;;;;;;6272784;22;20011;-87
2023/09/25 22:35:58;;;;;;;4.15;3.28;;;;;;;;;;6272437;22;20043;-87
2023/09/25 22:38:24;;;;;;;3.80;3.22;;;;;;;;;;6273029;22;20061;-86
2023/09/25 22:40:50;;;;;;;4.85;3.30;;;;;;;;;;6272616;22;20008;-87
2023/09/25 22:43:16;;;;;;;3.45;2.72;;;;;;;;;;6272314;22;20086;-87
2023/09/25 22:48:18;;;;;;;4.40;3.20;;;;;;;;;;6317344;22;20019;-79
2023/09/25 22:50:44;;;;;;;4.65;3.33;;;;;;;;;;6294074;22;20022;-79
2023/09/25 22:53:10;;;;;;;4.18;3.17;;;;;;;;;;6293376;22;20015;-79
2023/09/25 22:55:36;;;;;;;4.13;3.45;;;;;;;;;;6292400;22;20025;-79
2023/09/25 22:58:04;;;;;;;5.38;3.15;;;;;;;;;;6293951;22;20019;-79
2023/09/25 23:00:33;;;;;;;3.80;3.05;;;;;;;;;;6267163;22;20038;-79
2023/09/25 23:02:59;;;;;;;4.35;3.10;;;;;;;;;;6292944;22;20035;-79
2023/09/25 23:05:26;;;;;;;4.05;3.20;;;;;;;;;;6267779;22;20011;-80
2023/09/25 23:07:52;;;;;;;4.85;3.20;;;;;;;;;;6293583;22;20022;-80
2023/09/25 23:10:18;;;;;;;3.78;3.42;;;;;;;;;;6320224;22;20443;-80
2023/09/25 23:12:45;;;;;;;4.72;3.25;;;;;;;;;;6321864;22;20327;-80
2023/09/25 23:15:12;;;;;;;4.80;3.67;;;;;;;;;;6292619;22;20051;-80
2023/09/25 23:17:39;;;;;;;3.65;3.00;;;;;;;;;;6295968;22;20015;-80
2023/09/25 23:20:23;;;;;;;4.63;3.22;;;;;;;;;;6292501;22;20015;-80
2023/09/25 23:22:50;;;;;;;4.55;3.20;;;;;;;;;;6297133;22;20036;-80
2023/09/25 23:25:17;;;;;;;3.83;2.92;;;;;;;;;;6295367;22;20016;-80
2023/09/25 23:27:44;;;;;;;3.80;3.28;;;;;;;;;;6294537;22;20042;-80
2023/09/25 23:30:14;;;;;;;3.97;3.08;;;;;;;;;;6294530;22;20015;-80
2023/09/25 23:32:40;;;;;;;4.50;3.20;;;;;;;;;;6321574;22;20007;-80
2023/09/25 23:35:07;;;;;;;3.53;2.97;;;;;;;;;;6293138;22;20260;-80
2023/09/25 23:37:33;;;;;;;5.22;3.63;;;;;;;;;;6292759;22;20044;-80
2023/09/25 23:39:59;;;;;;;4.63;3.20;;;;;;;;;;6320055;22;20015;-80
2023/09/25 23:42:25;;;;;;;4.70;3.25;;;;;;;;;;6296679;22;19992;-80
2023/09/25 23:44:51;;;;;;;4.20;3.28;;;;;;;;;;6322587;22;20457;-80
2023/09/25 23:47:17;;;;;;;3.50;2.97;;;;;;;;;;6298553;22;20007;-80
2023/09/25 23:49:43;;;;;;;3.05;2.75;;;;;;;;;;6278884;22;20104;-80
2023/09/25 23:52:09;;;;;;;4.38;3.35;;;;;;;;;;6276590;22;20023;-80
2023/09/25 23:54:36;;;;;;;3.55;3.03;;;;;;;;;;6295844;22;20130;-80
2023/09/25 23:57:02;;;;;;;3.92;3.10;;;;;;;;;;6320647;22;20035;-80
2023/09/25 23:59:28;;;;;;;3.72;2.58;;;;;;;;;;6293404;22;20025;-80
